createdAt,value
2018-07-01T00:00:24.538Z,39.27
2018-07-01T00:02:52.833Z,39.91
2018-07-01T00:05:20.936Z,39.40
2018-07-01T00:07:49.223Z,39.20
2018-07-01T00:10:17.513Z,40.67
2018-07-01T00:12:45.727Z,40.35
2018-07-01T00:15:13.894Z,40.24
2018-07-01T00:17:42.150Z,40.13
2018-07-01T00:20:10.346Z,41.21
2018-07-01T00:22:39.225Z,40.86
2018-07-01T00:25:07.811Z,40.83
2018-07-01T00:27:35.997Z,41.14
2018-07-01T00:30:05.289Z,41.56
2018-07-01T00:32:33.523Z,41.36
2018-07-01T00:35:02.049Z,40.31
2018-07-01T00:37:30.202Z,40.07
2018-07-01T00:39:58.655Z,40.71
2018-07-01T00:42:27.001Z,41.53
2018-07-01T00:44:55.765Z,40.85
2018-07-01T00:47:23.933Z,40.17
2018-07-01T00:49:52.215Z,40.54
2018-07-01T00:52:20.357Z,41.55
2018-07-01T00:54:48.752Z,41.65
2018-07-01T00:57:17.422Z,41.79
2018-07-01T00:59:45.558Z,41.09
2018-07-01T01:02:13.794Z,40.41
2018-07-01T01:04:42.177Z,41.03
2018-07-01T01:07:10.406Z,39.50
2018-07-01T01:09:39.514Z,40.04
2018-07-01T01:12:08.047Z,39.70
2018-07-01T01:14:36.147Z,39.05
2018-07-01T01:17:09.668Z,39.78
2018-07-01T01:19:38.127Z,40.16
2018-07-01T01:22:06.271Z,40.05
2018-07-01T01:24:34.426Z,39.41
2018-07-01T01:27:02.685Z,40.21
2018-07-01T01:29:30.877Z,40.32
2018-07-01T01:31:59.270Z,40.17
2018-07-01T01:34:27.790Z,41.15
2018-07-01T01:36:55.974Z,40.91
2018-07-01T01:39:30.018Z,41.04
2018-07-01T01:42:34.445Z,41.62
2018-07-01T01:45:07.843Z,41.53
2018-07-01T01:47:39.921Z,40.95
2018-07-01T01:50:14.743Z,41.17
2018-07-01T01:52:47.367Z,41.76
2018-07-01T01:55:22.619Z,42.37
2018-07-01T01:57:56.889Z,42.84
2018-07-01T02:00:33.240Z,43.25
2018-07-01T02:03:07.118Z,41.83
2018-07-01T02:05:46.034Z,43.00
2018-07-01T02:08:22.996Z,43.63
2018-07-01T02:10:51.199Z,42.64
2018-07-01T02:13:19.445Z,43.35
2018-07-01T02:15:52.465Z,44.15
2018-07-01T02:18:20.849Z,43.69
2018-07-01T02:20:49.421Z,44.40
2018-07-01T02:23:23.387Z,43.24
2018-07-01T02:25:51.645Z,43.50
2018-07-01T02:28:20.427Z,44.59
2018-07-01T02:30:48.963Z,44.04
2018-07-01T02:33:17.064Z,44.29
2018-07-01T02:35:45.847Z,44.82
2018-07-01T02:38:13.920Z,44.53
2018-07-01T02:40:42.303Z,44.36
2018-07-01T02:43:10.499Z,44.93
2018-07-01T02:45:38.755Z,45.02
2018-07-01T02:48:07.434Z,45.18
2018-07-01T02:50:35.617Z,45.38
2018-07-01T02:53:04.094Z,44.52
2018-07-01T02:55:32.302Z,45.08
2018-07-01T02:58:00.517Z,45.38
2018-07-01T03:00:29.206Z,44.57
2018-07-01T03:02:57.338Z,45.25
2018-07-01T03:05:25.780Z,45.64
2018-07-01T03:07:54.047Z,44.83
2018-07-01T03:10:22.637Z,45.29
2018-07-01T03:12:51.034Z,45.68
2018-07-01T03:15:19.220Z,46.18
2018-07-01T03:17:47.482Z,46.23
2018-07-01T03:20:16.008Z,46.68
2018-07-01T03:22:44.162Z,46.99
2018-07-01T03:25:12.357Z,46.74
2018-07-01T03:27:40.600Z,46.01
2018-07-01T03:30:09.167Z,45.89
2018-07-01T03:32:38.088Z,46.96
2018-07-01T03:35:06.310Z,46.98
2018-07-01T03:37:34.426Z,46.25
2018-07-01T03:40:02.636Z,46.76
2018-07-01T03:42:30.805Z,45.84
2018-07-01T03:44:59.236Z,46.90
2018-07-01T03:47:27.402Z,47.13
2018-07-01T03:49:55.639Z,46.92
2018-07-01T03:52:23.776Z,46.83
2018-07-01T03:54:52.198Z,46.68
2018-07-01T03:57:28.008Z,46.16
2018-07-01T03:59:56.185Z,46.32
2018-07-01T04:02:24.812Z,46.79
2018-07-01T04:04:52.934Z,45.35
2018-07-01T04:07:21.289Z,42.65
2018-07-01T04:09:49.454Z,41.99
2018-07-01T04:12:17.803Z,42.49
2018-07-01T04:14:45.939Z,41.75
2018-07-01T04:17:14.444Z,41.86
2018-07-01T04:19:43.022Z,41.77
2018-07-01T04:22:11.181Z,41.17
2018-07-01T04:24:39.406Z,40.83
2018-07-01T04:27:07.694Z,41.05
2018-07-01T04:29:35.866Z,41.40
2018-07-01T04:32:04.208Z,41.53
2018-07-01T04:34:32.302Z,41.26
2018-07-01T04:37:00.512Z,40.83
2018-07-01T04:39:28.737Z,41.10
2018-07-01T04:41:57.224Z,41.58
2018-07-01T04:44:25.450Z,41.53
2018-07-01T04:46:53.600Z,41.64
2018-07-01T04:49:21.948Z,41.03
2018-07-01T04:51:50.031Z,41.41
2018-07-01T04:54:18.247Z,40.80
2018-07-01T04:56:47.335Z,40.68
2018-07-01T04:59:16.434Z,40.12
2018-07-01T05:01:44.569Z,39.93
2018-07-01T05:04:12.716Z,40.32
2018-07-01T05:06:41.123Z,39.89
2018-07-01T05:09:11.848Z,39.12
2018-07-01T05:11:41.102Z,39.87
2018-07-01T05:14:09.250Z,39.84
2018-07-01T05:16:38.654Z,40.03
2018-07-01T05:19:07.311Z,40.13
2018-07-01T05:21:35.435Z,39.94
2018-07-01T05:24:03.818Z,39.56
2018-07-01T05:26:32.105Z,39.51
2018-07-01T05:29:00.229Z,39.53
2018-07-01T05:31:28.504Z,39.27
2018-07-01T05:33:57.221Z,39.80
2018-07-01T05:36:25.513Z,38.75
2018-07-01T05:38:53.841Z,39.70
2018-07-01T05:41:22.227Z,38.39
2018-07-01T05:43:50.363Z,38.79
2018-07-01T05:46:18.531Z,39.04
2018-07-01T05:48:46.723Z,39.86
2018-07-01T05:51:15.017Z,39.16
2018-07-01T05:53:43.227Z,38.93
2018-07-01T05:56:11.517Z,40.21
2018-07-01T05:58:40.009Z,39.93
2018-07-01T06:01:08.160Z,38.97
2018-07-01T06:03:36.370Z,40.23
2018-07-01T06:06:04.600Z,38.59
2018-07-01T06:08:32.813Z,37.91
2018-07-01T06:11:01.260Z,38.75
2018-07-01T06:13:30.607Z,37.92
2018-07-01T06:15:58.888Z,37.68
2018-07-01T06:18:27.307Z,38.09
2018-07-01T06:20:56.105Z,37.71
2018-07-01T06:23:24.290Z,37.57
2018-07-01T06:25:52.441Z,37.65
2018-07-01T06:28:20.940Z,36.88
2018-07-01T06:30:49.303Z,37.32
2018-07-01T06:33:17.455Z,37.93
2018-07-01T06:35:45.673Z,36.54
2018-07-01T06:38:14.618Z,36.66
2018-07-01T06:40:42.821Z,36.13
2018-07-01T06:43:11.526Z,37.31
2018-07-01T06:45:39.676Z,36.75
2018-07-01T06:48:08.012Z,35.66
2018-07-01T06:50:36.335Z,36.12
2018-07-01T06:53:04.792Z,35.21
2018-07-01T06:55:32.988Z,35.56
2018-07-01T06:58:01.538Z,35.71
2018-07-01T07:00:30.673Z,35.74
2018-07-01T07:02:58.948Z,36.23
2018-07-01T07:05:27.194Z,35.92
2018-07-01T07:07:55.530Z,35.62
2018-07-01T07:10:23.869Z,35.98
2018-07-01T07:12:52.135Z,35.83
2018-07-01T07:15:20.670Z,34.69
2018-07-01T07:18:24.772Z,34.73
2018-07-01T07:20:53.010Z,34.79
2018-07-01T07:23:21.224Z,34.58
2018-07-01T07:25:49.485Z,35.00
2018-07-01T07:28:17.930Z,34.54
2018-07-01T07:30:46.410Z,34.36
2018-07-01T07:33:15.248Z,33.79
2018-07-01T07:35:43.581Z,34.20
2018-07-01T07:38:11.977Z,34.81
2018-07-01T07:40:40.858Z,34.71
2018-07-01T07:43:09.846Z,34.17
2018-07-01T07:45:38.008Z,33.17
2018-07-01T07:48:09.292Z,33.95
2018-07-01T07:50:37.398Z,34.33
2018-07-01T07:53:05.647Z,34.13
2018-07-01T07:55:33.843Z,33.91
2018-07-01T07:58:02.476Z,33.71
2018-07-01T08:00:30.958Z,33.65
2018-07-01T08:02:59.287Z,34.01
2018-07-01T08:05:28.026Z,33.49
2018-07-01T08:07:56.192Z,33.87
2018-07-01T08:10:24.475Z,34.21
2018-07-01T08:12:54.130Z,33.43
2018-07-01T08:15:22.852Z,34.27
2018-07-01T08:17:51.117Z,33.19
2018-07-01T08:20:19.381Z,32.98
2018-07-01T08:22:47.733Z,32.85
2018-07-01T08:25:16.024Z,32.43
2018-07-01T08:27:44.996Z,33.11
2018-07-01T08:30:13.165Z,31.84
2018-07-01T08:32:41.339Z,32.15
2018-07-01T08:35:09.622Z,32.25
2018-07-01T08:37:37.869Z,32.33
2018-07-01T08:40:06.367Z,31.99
2018-07-01T08:42:35.351Z,32.33
2018-07-01T08:45:05.423Z,32.53
2018-07-01T08:47:34.249Z,32.78
2018-07-01T08:50:02.596Z,32.12
2018-07-01T08:52:30.988Z,32.22
2018-07-01T08:54:59.389Z,32.30
2018-07-01T08:57:28.023Z,32.22
2018-07-01T08:59:56.145Z,31.84
2018-07-01T09:02:24.562Z,32.33
2018-07-01T09:04:52.841Z,31.87
2018-07-01T09:07:21.651Z,31.79
2018-07-01T09:09:50.469Z,32.25
2018-07-01T09:12:19.118Z,31.37
2018-07-01T09:14:47.924Z,31.68
2018-07-01T09:17:16.683Z,32.13
2018-07-01T09:19:45.712Z,31.70
2018-07-01T09:22:13.901Z,30.90
2018-07-01T09:24:42.915Z,30.47
2018-07-01T09:27:11.400Z,30.50
2018-07-01T09:29:48.203Z,30.44
2018-07-01T09:32:16.565Z,30.26
2018-07-01T09:34:45.701Z,29.85
2018-07-01T09:37:14.526Z,29.99
2018-07-01T09:39:43.678Z,30.22
2018-07-01T09:42:12.295Z,30.98
2018-07-01T09:44:40.438Z,30.66
2018-07-01T09:47:09.054Z,30.00
2018-07-01T09:49:37.279Z,29.93
2018-07-01T09:52:05.814Z,30.34
2018-07-01T09:54:34.797Z,29.60
2018-07-01T09:57:03.344Z,29.87
2018-07-01T09:59:31.837Z,30.16
2018-07-01T10:02:00.841Z,30.30
2018-07-01T10:04:29.242Z,29.89
2018-07-01T10:06:57.627Z,29.09
2018-07-01T10:09:26.179Z,29.82
2018-07-01T10:11:54.605Z,29.49
2018-07-01T10:14:22.855Z,29.76
2018-07-01T10:16:51.318Z,29.51
2018-07-01T10:19:19.457Z,29.03
2018-07-01T10:21:48.049Z,29.10
2018-07-01T10:24:16.375Z,28.03
2018-07-01T10:26:45.666Z,27.86
2018-07-01T10:29:14.601Z,28.79
2018-07-01T10:31:44.220Z,28.50
2018-07-01T10:34:13.129Z,28.51
2018-07-01T10:36:41.356Z,27.55
2018-07-01T10:39:17.498Z,28.56
2018-07-01T10:41:46.873Z,28.22
2018-07-01T10:44:15.281Z,27.15
2018-07-01T10:46:48.016Z,27.60
2018-07-01T10:49:16.647Z,28.23
2018-07-01T10:51:45.195Z,27.81
2018-07-01T10:54:13.731Z,27.59
2018-07-01T10:56:42.551Z,28.01
2018-07-01T10:59:11.054Z,27.04
2018-07-01T11:01:39.747Z,27.41
2018-07-01T11:04:08.834Z,27.43
2018-07-01T11:06:37.622Z,26.77
2018-07-01T11:09:09.661Z,26.81
2018-07-01T11:11:37.983Z,26.21
2018-07-01T11:14:06.297Z,26.88
2018-07-01T11:16:34.779Z,26.98
2018-07-01T11:19:03.201Z,25.57
2018-07-01T11:21:31.667Z,26.54
2018-07-01T11:24:00.437Z,25.76
2018-07-01T11:26:28.739Z,25.42
2018-07-01T11:28:57.364Z,26.12
2018-07-01T11:31:25.769Z,25.97
2018-07-01T11:33:54.881Z,25.53
2018-07-01T11:36:23.522Z,26.10
2018-07-01T11:38:51.704Z,25.99
2018-07-01T11:41:20.283Z,26.71
2018-07-01T11:43:48.441Z,25.51
2018-07-01T11:46:16.691Z,25.65
2018-07-01T11:48:45.229Z,25.33
2018-07-01T11:51:13.788Z,26.12
2018-07-01T11:53:42.584Z,26.58
2018-07-01T11:56:11.613Z,25.54
2018-07-01T11:58:39.880Z,25.81
2018-07-01T12:01:08.124Z,25.66
2018-07-01T12:03:36.443Z,25.84
2018-07-01T12:06:04.590Z,25.83
2018-07-01T12:08:33.183Z,25.15
2018-07-01T12:11:01.444Z,23.95
2018-07-01T12:13:29.698Z,24.58
2018-07-01T12:15:57.925Z,23.82
2018-07-01T12:18:26.275Z,24.24
2018-07-01T12:20:55.786Z,24.21
2018-07-01T12:23:24.265Z,23.59
2018-07-01T12:25:52.968Z,23.43
2018-07-01T12:28:21.521Z,24.33
2018-07-01T12:30:49.997Z,23.54
2018-07-01T12:33:18.376Z,24.32
2018-07-01T12:35:46.684Z,24.33
2018-07-01T12:38:15.005Z,24.83
2018-07-01T12:40:43.710Z,24.89
2018-07-01T12:43:11.985Z,24.70
2018-07-01T12:45:47.014Z,25.92
2018-07-01T12:48:15.451Z,25.41
2018-07-01T12:50:44.023Z,23.72
2018-07-01T12:53:12.226Z,24.15
2018-07-01T12:55:41.884Z,25.17
2018-07-01T12:58:10.118Z,24.84
2018-07-01T13:00:38.401Z,25.79
2018-07-01T13:03:06.838Z,24.37
2018-07-01T13:05:35.188Z,24.87
2018-07-01T13:08:03.881Z,24.48
2018-07-01T13:10:32.382Z,24.81
2018-07-01T13:13:01.372Z,24.80
2018-07-01T13:15:30.268Z,24.53
2018-07-01T13:17:58.593Z,24.05
2018-07-01T13:20:26.875Z,24.20
2018-07-01T13:22:55.176Z,24.78
2018-07-01T13:25:23.538Z,23.43
2018-07-01T13:27:51.795Z,23.31
2018-07-01T13:30:20.391Z,23.75
2018-07-01T13:32:48.859Z,24.06
2018-07-01T13:35:17.167Z,24.02
2018-07-01T13:37:45.450Z,24.97
2018-07-01T13:40:13.592Z,24.27
2018-07-01T13:42:42.559Z,23.08
2018-07-01T13:45:10.782Z,23.73
2018-07-01T13:47:39.397Z,24.44
2018-07-01T13:50:07.714Z,23.04
2018-07-01T13:52:36.290Z,22.81
2018-07-01T13:55:04.989Z,22.48
2018-07-01T13:57:33.358Z,22.59
2018-07-01T14:00:01.765Z,23.02
2018-07-01T14:02:30.386Z,21.91
2018-07-01T14:04:59.547Z,22.64
2018-07-01T14:07:28.862Z,22.81
2018-07-01T14:09:57.111Z,22.10
2018-07-01T14:12:26.623Z,21.95
2018-07-01T14:14:54.944Z,21.37
2018-07-01T14:17:23.151Z,21.80
2018-07-01T14:19:51.567Z,21.72
2018-07-01T14:22:19.998Z,21.29
2018-07-01T14:24:48.106Z,22.01
2018-07-01T14:27:16.545Z,21.49
2018-07-01T14:29:45.642Z,21.76
2018-07-01T14:32:13.787Z,21.79
2018-07-01T14:34:42.043Z,21.57
2018-07-01T14:37:10.208Z,21.86
2018-07-01T14:39:38.502Z,21.11
2018-07-01T14:42:06.672Z,21.67
2018-07-01T14:44:34.965Z,21.47
2018-07-01T14:47:03.166Z,21.55
2018-07-01T14:49:31.277Z,21.18
2018-07-01T14:51:59.564Z,21.22
2018-07-01T14:54:27.747Z,21.64
2018-07-01T14:56:56.003Z,20.69
2018-07-01T14:59:24.277Z,21.32
2018-07-01T15:01:52.407Z,21.93
2018-07-01T15:04:20.660Z,20.60
2018-07-01T15:06:48.904Z,20.46
2018-07-01T15:09:17.071Z,21.32
2018-07-01T15:11:45.250Z,21.00
2018-07-01T15:14:13.430Z,20.44
2018-07-01T15:16:41.626Z,19.38
2018-07-01T15:19:09.789Z,21.11
2018-07-01T15:21:37.971Z,20.50
2018-07-01T15:24:06.234Z,20.07
2018-07-01T15:26:34.616Z,20.15
2018-07-01T15:29:04.383Z,20.59
2018-07-01T15:31:32.584Z,20.31
2018-07-01T15:34:00.822Z,20.03
2018-07-01T15:36:29.068Z,20.08
2018-07-01T15:38:57.416Z,20.06
2018-07-01T15:41:25.713Z,20.08
2018-07-01T15:43:54.002Z,20.61
2018-07-01T15:46:22.267Z,21.66
2018-07-01T15:48:50.863Z,20.19
2018-07-01T15:51:19.096Z,20.59
2018-07-01T15:53:47.339Z,19.79
2018-07-01T15:56:15.551Z,19.90
2018-07-01T15:58:43.728Z,19.08
2018-07-01T16:01:11.886Z,19.53
2018-07-01T16:03:40.055Z,18.68
2018-07-01T16:06:08.289Z,18.33
2018-07-01T16:08:37.377Z,19.03
2018-07-01T16:11:05.627Z,18.67
2018-07-01T16:13:33.866Z,18.16
2018-07-01T16:16:02.055Z,17.89
2018-07-01T16:18:30.946Z,17.94
2018-07-01T16:20:59.221Z,17.77
2018-07-01T16:23:27.417Z,17.20
2018-07-01T16:28:12.540Z,16.20
2018-07-01T16:30:40.787Z,15.99
2018-07-01T16:33:08.987Z,15.53
2018-07-01T16:35:37.274Z,15.90
2018-07-01T16:38:06.222Z,15.77
2018-07-01T16:40:34.442Z,16.92
2018-07-01T16:43:02.674Z,16.23
2018-07-01T16:45:30.797Z,15.47
2018-07-01T16:47:59.115Z,16.52
2018-07-01T16:50:27.489Z,16.46
2018-07-01T16:52:55.918Z,15.32
2018-07-01T16:55:24.129Z,15.54
2018-07-01T16:57:52.387Z,15.24
2018-07-01T17:00:20.720Z,15.59
2018-07-01T17:02:49.045Z,14.36
2018-07-01T17:05:17.368Z,15.31
2018-07-01T17:07:45.681Z,14.84
2018-07-01T17:10:14.776Z,14.27
2018-07-01T17:12:43.091Z,14.62
2018-07-01T17:15:11.423Z,14.28
2018-07-01T17:17:39.804Z,14.98
2018-07-01T17:20:08.098Z,14.72
2018-07-01T17:22:36.671Z,14.54
2018-07-01T17:25:05.007Z,13.90
2018-07-01T17:27:33.135Z,14.03
2018-07-01T17:30:01.620Z,14.36
2018-07-01T17:32:35.524Z,14.17
2018-07-01T17:35:04.028Z,13.86
2018-07-01T17:37:32.417Z,14.90
2018-07-01T17:40:00.795Z,13.91
2018-07-01T17:42:28.952Z,13.57
2018-07-01T17:44:57.300Z,13.36
2018-07-01T17:47:25.516Z,14.13
2018-07-01T17:49:53.851Z,15.20
2018-07-01T17:52:22.221Z,15.06
2018-07-01T17:54:50.513Z,14.92
2018-07-01T17:57:18.667Z,14.15
2018-07-01T17:59:46.848Z,13.74
2018-07-01T18:02:15.078Z,13.63
2018-07-01T18:04:43.335Z,14.00
2018-07-01T18:07:11.509Z,14.34
2018-07-01T18:09:39.664Z,13.97
2018-07-01T18:12:08.108Z,15.44
2018-07-01T18:14:36.799Z,15.08
2018-07-01T18:17:05.028Z,14.46
2018-07-01T18:19:33.331Z,14.34
2018-07-01T18:22:27.956Z,14.40
2018-07-01T18:24:53.954Z,15.19
2018-07-01T18:26:58.750Z,14.96
2018-07-01T18:29:26.987Z,14.64
2018-07-01T18:31:55.470Z,15.15
2018-07-01T18:34:23.630Z,14.85
2018-07-01T18:36:51.790Z,14.13
2018-07-01T18:39:19.943Z,15.21
2018-07-01T18:41:48.155Z,15.94
2018-07-01T18:44:17.345Z,16.28
2018-07-01T18:46:45.622Z,15.59
2018-07-01T18:49:13.856Z,15.93
2018-07-01T18:51:42.075Z,16.11
2018-07-01T18:54:10.613Z,15.65
2018-07-01T18:56:38.859Z,17.43
2018-07-01T18:59:07.098Z,18.66
2018-07-01T19:01:35.311Z,22.17
2018-07-01T19:04:03.564Z,22.68
2018-07-01T19:06:31.727Z,23.18
2018-07-01T19:08:59.882Z,23.35
2018-07-01T19:11:28.099Z,24.14
2018-07-01T19:13:56.316Z,24.74
2018-07-01T19:16:24.541Z,24.98
2018-07-01T19:18:52.770Z,25.42
2018-07-01T19:21:21.034Z,25.84
2018-07-01T19:23:49.698Z,26.32
2018-07-01T19:26:17.922Z,26.34
2018-07-01T19:28:46.120Z,26.67
2018-07-01T19:31:14.294Z,26.83
2018-07-01T19:33:42.483Z,26.91
2018-07-01T19:36:11.016Z,27.12
2018-07-01T19:38:39.175Z,28.17
2018-07-01T19:41:07.432Z,28.40
2018-07-01T19:43:36.432Z,28.27
2018-07-01T19:46:04.670Z,29.01
2018-07-01T19:48:33.035Z,28.81
2018-07-01T19:51:01.283Z,29.22
2018-07-01T19:53:29.444Z,29.71
2018-07-01T19:55:57.641Z,29.25
2018-07-01T19:58:25.895Z,29.59
2018-07-01T20:00:53.984Z,29.70
2018-07-01T20:03:22.304Z,29.87
2018-07-01T20:05:50.803Z,29.91
2018-07-01T20:08:19.073Z,29.76
2018-07-01T20:10:47.299Z,30.19
2018-07-01T20:13:16.299Z,30.30
2018-07-01T20:15:44.530Z,30.68
2018-07-01T20:18:12.716Z,30.58
2018-07-01T20:20:40.836Z,30.80
2018-07-01T20:23:08.982Z,31.80
2018-07-01T20:25:38.013Z,31.53
2018-07-01T20:28:06.256Z,31.77
2018-07-01T20:30:34.457Z,31.77
2018-07-01T20:33:02.678Z,32.46
2018-07-01T20:35:30.980Z,32.44
2018-07-01T20:37:59.375Z,32.69
2018-07-01T20:40:27.577Z,33.26
2018-07-01T20:42:55.773Z,33.33
2018-07-01T20:45:23.951Z,33.30
2018-07-01T20:47:52.674Z,33.56
2018-07-01T20:50:20.936Z,33.74
2018-07-01T20:52:49.377Z,33.65
2018-07-01T20:55:17.668Z,33.72
2018-07-01T20:57:45.842Z,34.01
2018-07-01T21:00:14.125Z,33.76
2018-07-01T21:02:42.247Z,34.53
2018-07-01T21:05:10.425Z,34.31
2018-07-01T21:07:38.523Z,34.82
2018-07-01T21:10:06.655Z,35.03
2018-07-01T21:12:34.867Z,35.26
2018-07-01T21:15:03.057Z,35.21
2018-07-01T21:17:31.375Z,36.04
2018-07-01T21:19:59.597Z,36.09
2018-07-01T21:22:27.837Z,35.60
2018-07-01T21:24:56.042Z,35.83
2018-07-01T21:27:24.441Z,36.09
2018-07-01T21:29:52.665Z,35.74
2018-07-01T21:32:20.896Z,36.24
2018-07-01T21:34:49.284Z,35.94
2018-07-01T21:37:17.642Z,36.48
2018-07-01T21:39:45.872Z,36.53
2018-07-01T21:42:14.042Z,36.49
2018-07-01T21:44:42.355Z,36.85
2018-07-01T21:47:10.613Z,36.49
2018-07-01T21:49:38.950Z,37.00
2018-07-01T21:52:07.298Z,37.38
2018-07-01T21:54:35.581Z,37.48
2018-07-01T21:57:03.876Z,37.94
2018-07-01T21:59:32.090Z,37.70
2018-07-01T22:02:00.245Z,37.77
2018-07-01T22:04:28.379Z,38.19
2018-07-01T22:06:59.869Z,38.91
2018-07-01T22:09:28.882Z,38.46
2018-07-01T22:12:13.916Z,38.92
2018-07-01T22:14:59.380Z,38.77
2018-07-01T22:17:28.494Z,38.80
2018-07-01T22:19:57.058Z,39.53
2018-07-01T22:22:25.253Z,39.29
2018-07-01T22:24:53.508Z,39.69
2018-07-01T22:27:21.753Z,39.51
2018-07-01T22:29:49.979Z,39.29
2018-07-01T22:32:18.066Z,39.24
2018-07-01T22:34:46.274Z,39.64
2018-07-01T22:37:15.243Z,39.88
2018-07-01T22:39:43.439Z,39.44
2018-07-01T22:42:11.724Z,39.42
2018-07-01T22:44:39.947Z,39.47
2018-07-01T22:47:08.106Z,39.50
2018-07-01T22:49:36.325Z,38.97
2018-07-01T22:52:04.533Z,39.92
2018-07-01T22:54:32.673Z,40.02
2018-07-01T22:57:00.913Z,39.74
2018-07-01T22:59:30.084Z,39.55
2018-07-01T23:03:16.793Z,39.28
2018-07-01T23:05:44.886Z,39.48
2018-07-01T23:08:13.053Z,39.72
2018-07-01T23:10:41.339Z,39.09
2018-07-01T23:13:09.574Z,39.74
2018-07-01T23:15:37.780Z,40.00
2018-07-01T23:18:05.918Z,39.95
2018-07-01T23:20:34.025Z,39.93
2018-07-01T23:23:02.238Z,39.97
2018-07-01T23:25:30.473Z,39.92
2018-07-01T23:27:59.191Z,40.09
2018-07-01T23:30:27.405Z,39.67
2018-07-01T23:32:55.533Z,40.02
2018-07-01T23:35:23.694Z,38.67
2018-07-01T23:37:52.315Z,39.08
2018-07-01T23:40:20.438Z,39.58
2018-07-01T23:42:48.647Z,39.47
2018-07-01T23:45:16.850Z,39.06
2018-07-01T23:47:45.063Z,39.79
2018-07-01T23:50:13.303Z,40.05
2018-07-01T23:52:41.511Z,39.73
2018-07-01T23:55:09.996Z,39.84
2018-07-01T23:57:38.215Z,40.14
